Погода Мутумна 2 недели

Минас-Жерайс, Бразилия

14 - 27 июля
  • 14июля
    Сегодня
    +13°
    +29°
    Облачно с прояснениями
    ВремяПогодаТемператураВлажностьДавлениеВетер, м/сВероятность осадков
    00:00Небольшая облачность+18°C82 %745 мм1.1 м/с18 %
    03:00Облачно с прояснениями+17°C92 %745 мм0.8 м/с9 %
    06:00Небольшая облачность+15°C97 %744 мм0.7 м/с5 %
    09:00Практически безоблачно+22°C70 %746 мм0.5 м/с3 %
    12:00Небольшая облачность+26°C40 %745 мм2.4 м/с5 %
    15:00Облачно с прояснениями+28°C34 %743 мм2.9 м/с5 %
    18:00Практически безоблачно+22°C43 %743 мм2.1 м/с5 %
    21:00Практически безоблачно+19°C68 %744 мм1.8 м/с5 %
  • 15июля
    Понедельник
    +13°
    +30°
    Ясно и безоблачно
    ВремяПогодаТемператураВлажностьДавлениеВетер, м/сВероятность осадков
    00:00Ясно и безоблачно+16°C82 %744 мм1.1 м/с5 %
    03:00Ясно и безоблачно+14°C93 %743 мм1.2 м/с4 %
    06:00Ясно и безоблачно+14°C96 %744 мм0.9 м/с5 %
    09:00Ясно и безоблачно+21°C67 %746 мм0.4 м/с5 %
    12:00Ясно и безоблачно+27°C43 %745 мм1.2 м/с5 %
    15:00Ясно и безоблачно+30°C35 %744 мм0.8 м/с5 %
    18:00Ясно и безоблачно+23°C41 %744 мм0.2 м/с5 %
    21:00Практически безоблачно+19°C54 %745 мм2.2 м/с5 %
  • 16июля
    Вторник
    +13°
    +29°
    Облачно с прояснениями
    ВремяПогодаТемператураВлажностьДавлениеВетер, м/сВероятность осадков
    00:00Облачно с прояснениями+17°C71 %745 мм1.3 м/с4 %
    03:00Небольшая облачность+15°C89 %745 мм1.0 м/с4 %
    06:00Облачно с прояснениями+13°C96 %745 мм1.0 м/с5 %
    09:00Облачно с прояснениями+21°C67 %747 мм0.8 м/с2 %
    12:00Облачно с прояснениями+27°C45 %746 мм1.9 м/с4 %
    15:00Облачно с прояснениями+28°C43 %744 мм2.2 м/с5 %
    18:00Практически безоблачно+22°C52 %744 мм1.0 м/с8 %
    21:00Практически безоблачно+20°C73 %746 мм1.8 м/с14 %
  • 17июля
    Среда
    +13°
    +30°
    Практически безоблачно
    ВремяПогодаТемператураВлажностьДавлениеВетер, м/сВероятность осадков
    00:00Ясно и безоблачно+17°C88 %746 мм0.5 м/с9 %
    03:00Ясно и безоблачно+15°C95 %745 мм0.9 м/с5 %
    06:00Ясно и безоблачно+14°C96 %745 мм0.8 м/с5 %
    09:00Небольшая облачность+21°C74 %747 мм0.8 м/с5 %
    12:00Практически безоблачно+26°C50 %746 мм1.1 м/с6 %
    15:00Практически безоблачно+29°C40 %743 мм0.8 м/с6 %
    18:00Ясно и безоблачно+22°C50 %743 мм0.7 м/с8 %
    21:00Ясно и безоблачно+20°C55 %743 мм0.8 м/с17 %
  • 18июля
    Четверг
    +14°
    +30°
    Ясно и безоблачно
    ВремяПогодаТемператураВлажностьДавлениеВетер, м/сВероятность осадков
    00:00Ясно и безоблачно+16°C81 %744 мм1.1 м/с7 %
    03:00Ясно и безоблачно+14°C91 %743 мм0.7 м/с4 %
    06:00Ясно и безоблачно+14°C95 %743 мм0.8 м/с5 %
    09:00Ясно и безоблачно+21°C69 %745 мм0.5 м/с5 %
    12:00Ясно и безоблачно+27°C45 %744 мм1.3 м/с5 %
    15:00Ясно и безоблачно+30°C35 %742 мм0.5 м/с6 %
    18:00Ясно и безоблачно+22°C46 %742 мм1.3 м/с5 %
    21:00Небольшая облачность+21°C52 %743 мм1.8 м/с4 %
Мы используем cookies
Соглашаюсь